Harbor View, Ohio
Current Conditions -  °F | °C
As of 10:53 AM on Saturday 20 Dec 2014 (Local Time) from KTDZ Reporting Station
Overcast Overcast  
Wind Chill: 31°   Ceiling: 2400
Heat Index: 31°   Visibility: 10mi
Dew Point: 20°   Wind: 0mph
Humidity: 64%   Direction: NA
Pressure: 30.32"   Gusts: NA
Location:  41.69°N, 83.44°W
Report Text: KTDZ 201553Z AUTO 00000KT 10SM OVC024 M01/M07 A3032 RMK AO2 SLP274 T10061067 TSNO
Loading
Personal Weather Stations






























Interactive Weather Map New forecast layout! Learn more

10-Day Weather Forecast

Advertisements
Track Severe Weather on mobile